createdAt,value
2019-03-31T00:01:32.822Z,30.82
2019-03-31T00:04:03.031Z,33.50
2019-03-31T00:06:33.538Z,33.85
2019-03-31T00:09:05.959Z,36.00
2019-03-31T00:11:36.165Z,36.17
2019-03-31T00:14:06.406Z,34.50
2019-03-31T00:16:36.770Z,33.53
2019-03-31T00:19:07.242Z,32.03
2019-03-31T00:21:37.859Z,37.10
2019-03-31T00:24:08.063Z,32.15
2019-03-31T00:26:38.239Z,32.35
2019-03-31T00:29:08.443Z,34.33
2019-03-31T00:31:38.622Z,35.35
2019-03-31T00:34:09.829Z,38.33
2019-03-31T00:36:40.092Z,38.20
2019-03-31T00:39:10.407Z,33.90
2019-03-31T00:41:40.643Z,32.33
2019-03-31T00:44:10.894Z,32.08
2019-03-31T00:46:41.046Z,36.45
2019-03-31T00:49:11.412Z,35.83
2019-03-31T00:51:41.683Z,34.03
2019-03-31T00:54:11.858Z,38.58
2019-03-31T00:56:42.106Z,39.63
2019-03-31T00:59:12.293Z,35.88
2019-03-31T01:01:48.750Z,31.55
2019-03-31T01:04:22.913Z,30.80
2019-03-31T01:06:54.988Z,36.95
2019-03-31T01:09:30.714Z,34.92
2019-03-31T01:12:02.338Z,37.05
2019-03-31T01:14:32.701Z,33.20
2019-03-31T01:17:03.218Z,34.53
2019-03-31T01:19:33.613Z,29.27
2019-03-31T01:22:04.039Z,30.52
2019-03-31T01:24:34.300Z,30.08
2019-03-31T01:27:06.204Z,34.53
2019-03-31T01:29:36.391Z,32.25
2019-03-31T01:32:06.518Z,33.88
2019-03-31T01:34:36.844Z,33.30
2019-03-31T01:37:07.208Z,33.30
2019-03-31T01:39:37.556Z,30.62
2019-03-31T01:42:07.726Z,28.95
2019-03-31T01:44:37.903Z,32.28
2019-03-31T01:47:08.706Z,31.05
2019-03-31T01:49:38.948Z,34.38
2019-03-31T01:52:09.111Z,32.20
2019-03-31T01:54:39.392Z,30.45
2019-03-31T01:57:09.690Z,35.48
2019-03-31T01:59:39.874Z,33.25
2019-03-31T02:02:14.100Z,32.55
2019-03-31T02:04:44.256Z,35.33
2019-03-31T02:07:14.413Z,37.50
2019-03-31T02:09:44.612Z,35.30
2019-03-31T02:12:14.853Z,36.35
2019-03-31T02:14:45.343Z,35.48
2019-03-31T02:17:15.433Z,36.42
2019-03-31T02:19:45.553Z,37.58
2019-03-31T02:22:15.710Z,38.98
2019-03-31T02:24:45.867Z,35.65
2019-03-31T02:27:16.079Z,37.98
2019-03-31T02:29:46.247Z,42.67
2019-03-31T02:32:24.048Z,45.45
2019-03-31T02:34:48.260Z,36.42
2019-03-31T02:37:18.766Z,36.63
2019-03-31T02:39:48.972Z,43.45
2019-03-31T02:42:19.313Z,42.48
2019-03-31T02:44:49.515Z,44.15
2019-03-31T02:47:19.778Z,41.18
2019-03-31T02:49:49.966Z,45.25
2019-03-31T02:52:20.148Z,42.95
2019-03-31T02:54:50.344Z,48.85
2019-03-31T02:57:22.122Z,45.08
2019-03-31T02:59:54.000Z,48.28
2019-03-31T03:02:40.749Z,41.10
2019-03-31T03:05:16.913Z,40.92
2019-03-31T03:07:32.620Z,56.63
2019-03-31T03:10:04.772Z,41.68
2019-03-31T03:12:38.218Z,44.85
2019-03-31T03:15:08.884Z,45.48
2019-03-31T03:17:39.027Z,44.93
2019-03-31T03:20:09.172Z,43.13
2019-03-31T03:22:39.351Z,47.98
2019-03-31T03:25:09.445Z,46.33
2019-03-31T03:27:39.687Z,52.27
2019-03-31T03:30:09.871Z,45.20
2019-03-31T03:32:40.042Z,49.75
2019-03-31T03:35:10.264Z,48.08
2019-03-31T03:37:40.448Z,55.48
2019-03-31T03:40:10.720Z,45.40
2019-03-31T03:42:40.803Z,47.78
2019-03-31T03:45:11.144Z,50.67
2019-03-31T03:47:41.285Z,58.30
2019-03-31T03:50:11.612Z,53.20
2019-03-31T03:52:41.820Z,46.53
2019-03-31T03:55:12.042Z,50.45
2019-03-31T03:57:42.199Z,44.75
2019-03-31T04:00:12.424Z,43.28
2019-03-31T04:02:42.539Z,56.40
2019-03-31T04:05:12.836Z,55.15
2019-03-31T04:07:43.042Z,52.30
2019-03-31T04:10:49.064Z,49.77
2019-03-31T04:13:19.555Z,54.60
2019-03-31T04:15:49.760Z,51.37
2019-03-31T04:18:19.970Z,55.63
2019-03-31T04:20:50.105Z,55.65
2019-03-31T04:23:20.306Z,49.08
2019-03-31T04:25:50.536Z,59.00
2019-03-31T04:28:20.750Z,55.43
2019-03-31T04:30:51.016Z,56.35
2019-03-31T04:33:21.141Z,57.08
2019-03-31T04:35:51.361Z,59.50
2019-03-31T04:38:21.633Z,63.78
2019-03-31T04:40:51.838Z,59.08
2019-03-31T04:43:22.060Z,56.23
2019-03-31T04:45:52.201Z,59.60
2019-03-31T04:48:22.371Z,57.38
2019-03-31T04:50:52.550Z,59.70
2019-03-31T04:53:22.771Z,69.12
2019-03-31T04:55:52.977Z,64.03
2019-03-31T04:58:23.163Z,69.50
2019-03-31T05:00:53.351Z,65.30
2019-03-31T05:03:23.532Z,70.47
2019-03-31T05:05:53.871Z,67.72
2019-03-31T05:08:24.020Z,67.85
2019-03-31T05:10:54.336Z,69.00
2019-03-31T05:13:24.500Z,65.85
2019-03-31T05:15:54.682Z,58.68
2019-03-31T05:18:24.885Z,65.90
2019-03-31T05:20:55.038Z,64.15
2019-03-31T05:23:25.192Z,66.53
2019-03-31T05:25:55.332Z,65.25
2019-03-31T05:28:25.714Z,62.13
2019-03-31T05:30:55.928Z,73.72
2019-03-31T05:33:26.071Z,69.77
2019-03-31T05:35:56.291Z,70.75
2019-03-31T05:38:26.545Z,85.97
2019-03-31T05:40:56.686Z,68.02
2019-03-31T05:43:26.965Z,73.17
2019-03-31T05:45:57.179Z,69.82
2019-03-31T05:48:27.745Z,63.70
2019-03-31T05:50:58.010Z,67.40
2019-03-31T05:53:28.278Z,67.53
2019-03-31T05:55:58.550Z,67.78
2019-03-31T05:58:28.765Z,69.90
2019-03-31T06:00:58.937Z,69.30
2019-03-31T06:03:29.199Z,58.90
2019-03-31T06:05:59.538Z,66.60
2019-03-31T06:08:30.002Z,58.52
2019-03-31T06:11:00.194Z,55.20
2019-03-31T06:13:30.449Z,63.33
2019-03-31T06:16:00.649Z,55.45
2019-03-31T06:18:30.921Z,64.45
2019-03-31T06:21:01.153Z,68.33
2019-03-31T06:23:31.310Z,59.13
2019-03-31T06:26:01.570Z,53.02
2019-03-31T06:28:31.786Z,59.33
2019-03-31T06:31:02.136Z,61.83
2019-03-31T06:33:32.435Z,52.90
2019-03-31T06:36:02.710Z,53.55
2019-03-31T06:38:32.937Z,47.17
2019-03-31T06:41:05.720Z,48.50
2019-03-31T06:43:36.031Z,45.00
2019-03-31T06:46:06.216Z,45.48
2019-03-31T06:48:36.357Z,48.68
2019-03-31T06:51:06.532Z,51.75
2019-03-31T06:53:36.674Z,47.27
2019-03-31T06:56:06.851Z,42.23
2019-03-31T06:58:36.966Z,34.18
2019-03-31T07:01:07.341Z,34.40
2019-03-31T07:03:37.516Z,36.08
2019-03-31T07:06:08.039Z,26.73
2019-03-31T07:08:38.329Z,28.20
2019-03-31T07:11:08.643Z,28.77
2019-03-31T07:13:38.913Z,26.05
2019-03-31T07:16:09.131Z,31.65
2019-03-31T07:18:39.365Z,32.93
2019-03-31T07:21:09.569Z,25.48
2019-03-31T07:23:39.738Z,25.23
2019-03-31T07:26:10.066Z,38.00
2019-03-31T07:28:40.250Z,36.85
2019-03-31T07:31:10.454Z,23.25
2019-03-31T07:33:40.717Z,26.15
2019-03-31T07:36:10.986Z,29.10
2019-03-31T07:38:41.360Z,31.17
2019-03-31T07:41:12.847Z,27.32
2019-03-31T07:43:43.428Z,34.55
2019-03-31T07:46:13.566Z,27.37
2019-03-31T07:48:43.753Z,36.60
2019-03-31T07:51:13.998Z,34.48
2019-03-31T07:53:44.253Z,39.33
2019-03-31T07:56:16.111Z,33.00
2019-03-31T07:58:46.673Z,31.42
2019-03-31T08:01:16.950Z,30.40
2019-03-31T08:03:47.210Z,28.27
2019-03-31T08:06:17.663Z,35.52
2019-03-31T08:08:47.932Z,28.60
2019-03-31T08:11:20.673Z,19.27
2019-03-31T08:13:50.900Z,19.23
2019-03-31T08:16:21.112Z,23.57
2019-03-31T08:18:51.305Z,17.67
2019-03-31T08:21:21.507Z,18.90
2019-03-31T08:23:51.740Z,15.18
2019-03-31T08:26:22.033Z,20.45
2019-03-31T08:28:53.495Z,21.10
2019-03-31T08:31:32.267Z,24.65
2019-03-31T08:34:02.506Z,22.90
2019-03-31T08:36:35.288Z,24.05
2019-03-31T08:39:06.928Z,23.75
2019-03-31T08:41:37.901Z,27.87
2019-03-31T08:44:08.858Z,23.95
2019-03-31T08:46:39.245Z,23.55
2019-03-31T08:49:09.446Z,28.23
2019-03-31T08:51:39.800Z,22.35
2019-03-31T08:54:10.093Z,29.67
2019-03-31T08:56:40.323Z,26.35
2019-03-31T08:59:10.468Z,36.90
2019-03-31T09:01:40.727Z,22.82
2019-03-31T09:04:11.088Z,18.12
2019-03-31T09:06:41.239Z,17.92
2019-03-31T09:09:11.572Z,25.92
2019-03-31T09:11:41.820Z,23.57
2019-03-31T09:14:12.085Z,17.07
2019-03-31T09:16:42.273Z,20.68
2019-03-31T09:19:12.493Z,17.77
2019-03-31T09:21:42.770Z,26.52
2019-03-31T09:24:12.939Z,25.65
2019-03-31T09:26:43.107Z,24.32
2019-03-31T09:29:13.321Z,25.25
2019-03-31T09:31:43.635Z,22.02
2019-03-31T09:34:13.765Z,23.50
2019-03-31T09:36:44.058Z,24.90
2019-03-31T09:39:14.206Z,25.15
2019-03-31T09:41:44.554Z,22.20
2019-03-31T09:44:14.732Z,22.37
2019-03-31T09:46:44.941Z,22.40
2019-03-31T09:49:15.160Z,23.25
2019-03-31T09:51:45.300Z,39.95
2019-03-31T09:54:15.587Z,23.55
2019-03-31T09:56:45.834Z,21.25
2019-03-31T09:59:16.166Z,18.17
2019-03-31T10:01:46.703Z,16.05
2019-03-31T10:04:17.327Z,21.40
2019-03-31T10:06:48.131Z,17.82
2019-03-31T10:09:18.582Z,17.52
2019-03-31T10:11:49.261Z,15.20
2019-03-31T10:14:19.458Z,15.50
2019-03-31T10:16:49.898Z,15.80
2019-03-31T10:19:20.170Z,18.05
2019-03-31T10:21:50.617Z,18.65
2019-03-31T10:24:20.887Z,14.20
2019-03-31T10:26:52.149Z,17.80
2019-03-31T10:29:22.316Z,16.48
2019-03-31T10:31:52.432Z,14.28
2019-03-31T10:34:22.563Z,19.15
2019-03-31T10:36:52.752Z,14.10
2019-03-31T10:39:23.066Z,18.42
2019-03-31T10:41:53.345Z,11.43
2019-03-31T10:44:23.481Z,11.57
2019-03-31T10:46:53.647Z,16.17
2019-03-31T10:49:23.932Z,12.05
2019-03-31T10:51:54.101Z,16.00
2019-03-31T10:54:24.209Z,14.30
2019-03-31T10:56:54.429Z,14.45
2019-03-31T10:59:24.637Z,11.50
2019-03-31T11:01:55.088Z,10.43
2019-03-31T11:04:25.285Z,11.50
2019-03-31T11:06:59.564Z,7.40
2019-03-31T11:09:27.302Z,9.13
2019-03-31T11:11:57.462Z,10.03
2019-03-31T11:14:27.614Z,7.75
2019-03-31T11:16:57.881Z,8.43
2019-03-31T11:19:28.037Z,10.95
2019-03-31T11:22:12.466Z,9.73
2019-03-31T11:24:42.636Z,8.45
2019-03-31T11:27:12.901Z,10.58
2019-03-31T11:29:43.077Z,11.18
2019-03-31T11:32:13.284Z,10.88
2019-03-31T11:34:43.428Z,11.83
2019-03-31T11:37:14.740Z,11.38
2019-03-31T11:39:44.857Z,12.10
2019-03-31T11:42:15.092Z,11.80
2019-03-31T11:44:45.720Z,8.80
2019-03-31T11:47:15.944Z,9.03
2019-03-31T11:49:46.063Z,8.93
2019-03-31T11:52:16.520Z,13.03
2019-03-31T11:54:46.687Z,7.50
2019-03-31T11:57:17.690Z,9.25
2019-03-31T11:59:49.701Z,9.78
2019-03-31T12:02:26.984Z,6.62
2019-03-31T12:04:51.629Z,7.45
2019-03-31T12:07:28.346Z,7.83
2019-03-31T12:09:53.773Z,6.50
2019-03-31T12:12:24.161Z,6.15
2019-03-31T12:15:00.700Z,5.40
2019-03-31T12:17:26.180Z,5.62
2019-03-31T12:19:56.410Z,7.55
2019-03-31T12:22:26.561Z,3.90
2019-03-31T12:24:56.752Z,8.18
2019-03-31T12:27:26.891Z,10.23
2019-03-31T12:29:57.036Z,4.12
2019-03-31T12:32:27.305Z,9.25
2019-03-31T12:34:57.867Z,5.50
2019-03-31T12:37:41.355Z,5.90
2019-03-31T12:39:59.714Z,6.33
2019-03-31T12:42:29.922Z,8.78
2019-03-31T12:45:00.405Z,6.45
2019-03-31T12:47:30.507Z,4.40
2019-03-31T12:50:00.716Z,5.37
2019-03-31T12:52:30.930Z,2.70
2019-03-31T12:55:01.049Z,3.40
2019-03-31T12:57:31.556Z,4.78
2019-03-31T13:00:01.705Z,5.92
2019-03-31T13:02:31.847Z,3.17
2019-03-31T13:05:02.110Z,8.85
2019-03-31T13:07:32.278Z,5.20
2019-03-31T13:10:02.529Z,6.40
2019-03-31T13:12:34.940Z,11.08
2019-03-31T13:15:05.697Z,7.80
2019-03-31T13:17:35.883Z,3.50
2019-03-31T13:20:06.728Z,4.45
2019-03-31T13:22:36.893Z,6.08
2019-03-31T13:25:07.335Z,2.20
2019-03-31T13:27:37.560Z,10.80
2019-03-31T13:30:07.867Z,4.78
2019-03-31T13:32:38.275Z,5.75
2019-03-31T13:35:08.911Z,9.53
2019-03-31T13:37:39.166Z,5.67
2019-03-31T13:40:09.604Z,4.17
2019-03-31T13:42:39.962Z,5.95
2019-03-31T13:45:10.758Z,4.42
2019-03-31T13:47:41.025Z,11.65
2019-03-31T13:50:12.913Z,5.53
2019-03-31T13:52:43.242Z,9.73
2019-03-31T13:55:13.671Z,4.67
2019-03-31T13:57:45.069Z,9.28
2019-03-31T14:00:25.489Z,4.87
2019-03-31T14:03:10.154Z,3.35
2019-03-31T14:05:40.925Z,5.17
2019-03-31T14:08:25.115Z,6.28
2019-03-31T14:10:45.903Z,3.15
2019-03-31T14:13:16.290Z,5.75
2019-03-31T14:15:46.653Z,4.80
2019-03-31T14:18:16.890Z,8.10
2019-03-31T14:20:47.096Z,7.50
2019-03-31T14:23:17.305Z,4.75
2019-03-31T14:25:47.482Z,6.40
2019-03-31T14:28:17.703Z,7.67
2019-03-31T14:30:47.957Z,3.98
2019-03-31T14:33:18.239Z,6.22
2019-03-31T14:35:48.629Z,7.15
2019-03-31T14:38:18.826Z,7.37
2019-03-31T14:40:49.098Z,6.12
2019-03-31T14:43:19.457Z,4.90
2019-03-31T14:45:50.314Z,6.67
2019-03-31T14:48:20.605Z,6.65
2019-03-31T14:50:50.830Z,5.92
2019-03-31T14:53:22.648Z,6.55
2019-03-31T14:55:52.902Z,4.85
2019-03-31T14:58:23.277Z,7.35
2019-03-31T15:00:53.698Z,8.03
2019-03-31T15:03:23.843Z,6.00
2019-03-31T15:05:54.085Z,2.15
2019-03-31T15:08:24.311Z,3.72
2019-03-31T15:10:54.863Z,4.22
2019-03-31T15:13:25.186Z,4.65
2019-03-31T15:15:55.407Z,3.17
2019-03-31T15:18:25.630Z,4.60
2019-03-31T15:20:55.857Z,5.45
2019-03-31T15:23:29.529Z,3.83
2019-03-31T15:25:58.249Z,2.80
2019-03-31T15:28:28.623Z,3.58
2019-03-31T15:30:58.929Z,3.05
2019-03-31T15:33:29.156Z,2.05
2019-03-31T15:35:59.498Z,2.83
2019-03-31T15:38:29.740Z,2.58
2019-03-31T15:41:00.022Z,2.47
2019-03-31T15:43:30.221Z,4.62
2019-03-31T15:46:00.355Z,4.35
2019-03-31T15:48:30.710Z,3.75
2019-03-31T15:51:00.910Z,2.37
2019-03-31T15:53:31.088Z,3.83
2019-03-31T15:56:01.213Z,4.50
2019-03-31T15:58:31.356Z,3.67
2019-03-31T16:01:01.538Z,5.17
2019-03-31T16:03:33.349Z,4.83
2019-03-31T16:06:03.729Z,2.58
2019-03-31T16:08:33.604Z,4.78
2019-03-31T16:11:04.910Z,5.72
2019-03-31T16:13:34.785Z,5.03
2019-03-31T16:16:04.504Z,3.90
2019-03-31T16:18:34.197Z,2.60
2019-03-31T16:21:03.888Z,5.15
2019-03-31T16:23:33.428Z,5.00
2019-03-31T16:26:03.409Z,7.90
2019-03-31T16:28:33.005Z,4.62
2019-03-31T16:31:02.694Z,3.83
2019-03-31T16:33:32.443Z,3.25
2019-03-31T16:36:02.042Z,5.15
2019-03-31T16:38:31.697Z,3.33
2019-03-31T16:41:01.551Z,6.58
2019-03-31T16:43:31.199Z,5.28
2019-03-31T16:46:01.043Z,5.75
2019-03-31T16:48:30.697Z,3.80
2019-03-31T16:51:00.299Z,2.67
2019-03-31T16:53:29.883Z,2.60
2019-03-31T16:55:59.669Z,9.38
2019-03-31T16:58:29.471Z,5.25
2019-03-31T17:00:59.417Z,2.40
2019-03-31T17:03:29.152Z,3.83
2019-03-31T17:05:58.779Z,2.80
2019-03-31T17:08:28.538Z,3.17
2019-03-31T17:10:58.159Z,5.78
2019-03-31T17:13:27.778Z,3.52
2019-03-31T17:15:57.791Z,2.00
2019-03-31T17:18:27.438Z,5.12
2019-03-31T17:20:57.356Z,6.80
2019-03-31T17:23:26.991Z,6.72
2019-03-31T17:25:56.794Z,3.60
2019-03-31T17:28:26.523Z,6.97
2019-03-31T17:30:56.153Z,5.53
2019-03-31T17:33:25.775Z,9.13
2019-03-31T17:35:55.452Z,4.47
2019-03-31T17:38:25.159Z,7.55
2019-03-31T17:40:55.275Z,3.80
2019-03-31T17:43:25.734Z,3.95
2019-03-31T17:45:55.515Z,13.30
2019-03-31T17:48:25.169Z,9.58
2019-03-31T17:50:54.955Z,10.03
2019-03-31T17:53:24.642Z,5.15
2019-03-31T17:55:54.293Z,6.20
2019-03-31T17:58:24.040Z,5.65
2019-03-31T18:00:53.917Z,6.05
2019-03-31T18:03:23.608Z,12.33
2019-03-31T18:05:53.196Z,3.40
2019-03-31T18:08:22.930Z,5.87
2019-03-31T18:10:52.695Z,4.37
2019-03-31T18:13:22.963Z,8.00
2019-03-31T18:15:52.657Z,7.17
2019-03-31T18:18:22.475Z,5.15
2019-03-31T18:20:52.144Z,6.95
2019-03-31T18:23:22.299Z,7.22
2019-03-31T18:25:51.874Z,4.30
2019-03-31T18:28:21.663Z,6.15
2019-03-31T18:30:51.371Z,4.87
2019-03-31T18:33:21.116Z,15.83
2019-03-31T18:35:50.818Z,2.42
2019-03-31T18:38:20.770Z,3.62
2019-03-31T18:40:51.546Z,8.13
2019-03-31T18:43:21.516Z,5.72
2019-03-31T18:45:51.274Z,6.78
2019-03-31T18:48:21.330Z,4.95
2019-03-31T18:50:51.162Z,5.03
2019-03-31T18:53:48.840Z,7.60
2019-03-31T18:56:47.789Z,6.47
2019-03-31T18:59:33.896Z,5.37
2019-03-31T19:02:28.604Z,9.20
2019-03-31T19:05:24.492Z,9.10
2019-03-31T19:08:08.974Z,10.53
2019-03-31T19:11:00.984Z,6.08
2019-03-31T19:13:55.724Z,10.25
2019-03-31T19:16:46.303Z,6.92
2019-03-31T19:19:27.251Z,9.73
2019-03-31T19:22:07.364Z,8.53
2019-03-31T19:25:04.633Z,12.60
2019-03-31T19:28:12.083Z,7.95
2019-03-31T19:31:01.501Z,12.07
2019-03-31T19:33:46.477Z,12.60
2019-03-31T19:36:42.186Z,9.08
2019-03-31T19:39:23.026Z,6.42
2019-03-31T19:42:23.837Z,9.70
2019-03-31T19:45:10.793Z,9.63
2019-03-31T19:47:55.428Z,6.35
2019-03-31T19:50:44.720Z,5.92
2019-03-31T19:53:34.103Z,10.13
2019-03-31T19:56:37.006Z,10.88
2019-03-31T19:59:26.412Z,7.53
2019-03-31T20:02:19.640Z,8.00
2019-03-31T20:05:09.752Z,8.38
2019-03-31T20:14:48.072Z,6.75
2019-03-31T20:18:10.705Z,10.58
2019-03-31T20:26:57.597Z,8.73
2019-03-31T20:30:30.689Z,6.97
2019-03-31T21:00:02.047Z,7.00
2019-03-31T21:02:32.672Z,8.45
2019-03-31T21:05:03.579Z,8.50
2019-03-31T21:07:36.260Z,7.08
2019-03-31T21:10:08.029Z,6.00
2019-03-31T21:12:38.003Z,7.65
2019-03-31T21:15:09.213Z,5.72
2019-03-31T21:17:40.118Z,9.68
2019-03-31T21:20:10.318Z,10.08
2019-03-31T21:22:42.303Z,8.53
2019-03-31T21:25:15.089Z,11.15
2019-03-31T21:27:45.236Z,11.43
2019-03-31T21:30:16.936Z,7.03
2019-03-31T21:32:46.858Z,10.25
2019-03-31T21:35:16.776Z,7.12
2019-03-31T21:37:46.756Z,6.65
2019-03-31T21:40:16.729Z,8.68
2019-03-31T21:42:46.687Z,5.12
2019-03-31T21:45:23.333Z,5.42
2019-03-31T21:47:53.974Z,8.68
2019-03-31T21:50:23.847Z,5.92
2019-03-31T21:52:57.468Z,6.10
2019-03-31T21:55:28.267Z,7.17
2019-03-31T21:57:59.658Z,4.90
2019-03-31T22:00:47.200Z,6.37
2019-03-31T22:03:17.568Z,4.08
2019-03-31T22:05:47.283Z,9.98
2019-03-31T22:08:17.809Z,10.18
2019-03-31T22:10:48.366Z,5.67
2019-03-31T22:13:18.510Z,5.97
2019-03-31T22:15:48.656Z,6.35
2019-03-31T22:18:25.908Z,7.37
2019-03-31T22:20:55.599Z,3.00
2019-03-31T22:23:25.258Z,8.03
2019-03-31T22:25:54.837Z,4.75
2019-03-31T22:28:24.419Z,5.90
2019-03-31T22:30:54.030Z,8.05
2019-03-31T22:33:23.754Z,4.47
2019-03-31T22:36:10.691Z,8.05
2019-03-31T22:38:40.401Z,12.68
2019-03-31T22:41:10.007Z,7.25
2019-03-31T22:43:39.659Z,7.00
2019-03-31T22:46:09.359Z,7.03
2019-03-31T22:48:39.017Z,6.55
2019-03-31T22:51:08.716Z,9.40
2019-03-31T22:53:38.397Z,8.55
2019-03-31T22:56:08.007Z,11.63
2019-03-31T22:58:37.612Z,6.85
2019-03-31T23:01:07.202Z,7.90
2019-03-31T23:03:37.023Z,9.58
2019-03-31T23:06:06.544Z,8.68
2019-03-31T23:08:36.144Z,7.55
2019-03-31T23:11:06.638Z,3.80
2019-03-31T23:13:36.429Z,12.65
2019-03-31T23:16:05.998Z,5.78
2019-03-31T23:18:35.687Z,7.40
2019-03-31T23:21:05.386Z,8.85
2019-03-31T23:23:35.007Z,3.83
2019-03-31T23:26:04.605Z,7.80
2019-03-31T23:28:35.776Z,6.37
2019-03-31T23:31:05.323Z,4.95
2019-03-31T23:33:34.891Z,10.20
2019-03-31T23:36:04.537Z,10.40
2019-03-31T23:38:34.284Z,8.13
2019-03-31T23:41:04.207Z,5.60
2019-03-31T23:43:33.819Z,5.30
2019-03-31T23:46:03.374Z,7.05
2019-03-31T23:48:33.022Z,6.60
2019-03-31T23:51:02.599Z,7.12
2019-03-31T23:53:32.140Z,9.93
2019-03-31T23:56:01.716Z,6.30
2019-03-31T23:58:31.279Z,8.58
